createdAt,value
2018-01-13T00:00:26.469Z,6.30
2018-01-13T00:01:30.759Z,6.30
2018-01-13T00:02:34.889Z,6.30
2018-01-13T00:03:38.920Z,6.20
2018-01-13T00:04:43.157Z,6.20
2018-01-13T00:05:47.164Z,6.20
2018-01-13T00:06:51.954Z,6.20
2018-01-13T00:07:55.988Z,6.10
2018-01-13T00:08:59.971Z,6.20
2018-01-13T00:10:04.734Z,6.10
2018-01-13T00:11:08.813Z,6.10
2018-01-13T00:12:13.127Z,6.20
2018-01-13T00:13:17.322Z,6.20
2018-01-13T00:14:21.571Z,6.20
2018-01-13T00:15:25.839Z,6.30
2018-01-13T00:16:30.007Z,6.30
2018-01-13T00:17:34.241Z,6.40
2018-01-13T00:18:38.412Z,6.50
2018-01-13T00:19:42.579Z,6.50
2018-01-13T00:20:46.629Z,6.60
2018-01-13T00:21:51.487Z,6.60
2018-01-13T00:22:55.768Z,6.60
2018-01-13T00:23:59.948Z,6.60
2018-01-13T00:25:03.928Z,6.60
2018-01-13T00:26:07.937Z,6.60
2018-01-13T00:27:11.991Z,6.60
2018-01-13T00:28:15.928Z,6.50
2018-01-13T00:29:19.943Z,6.40
2018-01-13T00:30:24.205Z,6.50
2018-01-13T00:31:28.438Z,6.40
2018-01-13T00:32:32.719Z,6.40
2018-01-13T00:33:36.910Z,6.40
2018-01-13T00:34:41.150Z,6.40
2018-01-13T00:35:45.427Z,6.30
2018-01-13T00:36:49.599Z,6.30
2018-01-13T00:37:54.682Z,6.30
2018-01-13T00:38:58.888Z,6.30
2018-01-13T00:40:03.034Z,6.40
2018-01-13T00:41:07.915Z,6.40
2018-01-13T00:42:12.055Z,6.40
2018-01-13T00:43:17.060Z,6.40
2018-01-13T00:44:21.259Z,6.40
2018-01-13T00:45:25.459Z,6.30
2018-01-13T00:46:29.966Z,6.30
2018-01-13T00:47:34.116Z,6.30
2018-01-13T00:48:38.481Z,6.30
2018-01-13T00:49:42.715Z,6.30
2018-01-13T00:50:47.656Z,6.30
2018-01-13T00:51:51.922Z,6.20
2018-01-13T00:53:02.944Z,6.20
2018-01-13T00:54:07.261Z,6.20
2018-01-13T00:55:11.480Z,6.20
2018-01-13T00:56:15.698Z,6.10
2018-01-13T00:57:19.813Z,6.20
2018-01-13T00:58:24.121Z,6.20
2018-01-13T00:59:29.300Z,6.30
2018-01-13T01:00:33.855Z,6.30
2018-01-13T01:01:41.184Z,6.40
2018-01-13T01:02:45.450Z,6.40
2018-01-13T01:03:50.497Z,6.30
2018-01-13T01:04:54.899Z,6.30
2018-01-13T01:05:59.045Z,6.30
2018-01-13T01:07:03.291Z,6.20
2018-01-13T01:08:08.242Z,6.10
2018-01-13T01:09:12.472Z,6.10
2018-01-13T01:10:16.791Z,6.20
2018-01-13T01:11:21.001Z,6.10
2018-01-13T01:12:25.783Z,6.20
2018-01-13T01:13:29.992Z,6.20
2018-01-13T01:14:34.254Z,6.20
2018-01-13T01:15:39.185Z,6.10
2018-01-13T01:16:43.534Z,6.10
2018-01-13T01:17:47.857Z,6.10
2018-01-13T01:18:51.960Z,6.00
2018-01-13T01:19:56.072Z,6.10
2018-01-13T01:21:00.723Z,6.10
2018-01-13T01:22:04.832Z,6.10
2018-01-13T01:23:09.579Z,5.90
2018-01-13T01:24:13.591Z,5.90
2018-01-13T01:25:17.577Z,5.90
2018-01-13T01:26:21.721Z,5.90
2018-01-13T01:27:25.764Z,6.00
2018-01-13T01:28:29.821Z,6.00
2018-01-13T01:29:33.869Z,6.00
2018-01-13T01:30:38.078Z,6.00
2018-01-13T01:31:42.045Z,6.00
2018-01-13T01:32:46.317Z,6.00
2018-01-13T01:33:50.568Z,6.00
2018-01-13T01:34:55.672Z,6.00
2018-01-13T01:35:59.941Z,5.90
2018-01-13T01:37:04.096Z,6.00
2018-01-13T01:38:08.280Z,5.90
2018-01-13T01:39:12.453Z,5.90
2018-01-13T01:40:16.506Z,5.90
2018-01-13T01:41:20.666Z,5.90
2018-01-13T01:42:25.074Z,5.90
2018-01-13T01:43:29.132Z,5.90
2018-01-13T01:44:34.015Z,5.90
2018-01-13T01:45:38.038Z,5.90
2018-01-13T01:46:41.986Z,6.00
2018-01-13T01:47:46.114Z,6.00
2018-01-13T01:48:50.172Z,6.00
2018-01-13T01:49:54.333Z,6.00
2018-01-13T01:50:58.531Z,6.00
2018-01-13T01:52:02.674Z,6.10
2018-01-13T01:53:07.534Z,6.10
2018-01-13T01:54:11.593Z,6.00
2018-01-13T01:55:16.324Z,6.20
2018-01-13T01:56:20.301Z,6.20
2018-01-13T01:57:24.249Z,6.30
2018-01-13T01:58:28.416Z,6.30
2018-01-13T01:59:33.157Z,6.40
2018-01-13T02:00:37.362Z,6.30
2018-01-13T02:01:41.553Z,6.30
2018-01-13T02:02:45.739Z,6.20
2018-01-13T02:03:50.714Z,6.20
2018-01-13T02:04:54.894Z,6.10
2018-01-13T02:05:59.115Z,6.20
2018-01-13T02:07:03.350Z,6.30
2018-01-13T02:08:07.577Z,6.20
2018-01-13T02:09:12.641Z,6.20
2018-01-13T02:10:16.912Z,6.20
2018-01-13T02:11:21.954Z,6.20
2018-01-13T02:12:26.137Z,6.20
2018-01-13T02:13:31.117Z,6.20
2018-01-13T02:14:35.494Z,6.10
2018-01-13T02:15:39.690Z,6.20
2018-01-13T02:16:43.808Z,6.20
2018-01-13T02:17:48.099Z,6.20
2018-01-13T02:18:52.548Z,6.30
2018-01-13T02:19:56.892Z,6.30
2018-01-13T02:21:01.085Z,6.40
2018-01-13T02:22:05.276Z,6.40
2018-01-13T02:23:09.393Z,6.40
2018-01-13T02:24:14.021Z,6.40
2018-01-13T02:25:18.273Z,6.40
2018-01-13T02:26:22.500Z,6.30
2018-01-13T02:27:26.706Z,6.30
2018-01-13T02:28:30.891Z,6.40
2018-01-13T02:29:35.090Z,6.40
2018-01-13T02:30:39.196Z,6.40
2018-01-13T02:31:43.270Z,6.40
2018-01-13T02:32:48.083Z,6.40
2018-01-13T02:33:52.832Z,6.50
2018-01-13T02:34:56.825Z,6.40
2018-01-13T02:36:00.824Z,6.50
2018-01-13T02:37:05.072Z,6.40
2018-01-13T02:38:09.037Z,6.40
2018-01-13T02:39:13.379Z,6.40
2018-01-13T02:40:17.589Z,6.40
2018-01-13T02:41:21.853Z,6.40
2018-01-13T02:42:26.025Z,6.30
2018-01-13T02:43:31.233Z,6.30
2018-01-13T02:44:36.235Z,6.30
2018-01-13T02:45:40.373Z,6.30
2018-01-13T02:46:45.457Z,6.40
2018-01-13T02:47:49.711Z,6.40
2018-01-13T02:48:54.696Z,6.50
2018-01-13T02:49:59.118Z,6.40
2018-01-13T02:51:04.357Z,6.50
2018-01-13T02:52:09.084Z,6.50
2018-01-13T02:53:14.096Z,6.50
2018-01-13T02:54:18.310Z,6.50
2018-01-13T02:55:23.547Z,6.60
2018-01-13T02:56:28.397Z,6.50
2018-01-13T02:57:32.484Z,6.50
2018-01-13T02:58:36.600Z,6.50
2018-01-13T02:59:40.685Z,6.40
2018-01-13T03:00:44.705Z,6.40
2018-01-13T03:01:49.883Z,6.50
2018-01-13T03:02:54.047Z,6.40
2018-01-13T03:03:58.352Z,6.50
2018-01-13T03:05:02.467Z,6.50
2018-01-13T03:06:06.527Z,6.40
2018-01-13T03:07:10.624Z,6.40
2018-01-13T03:08:15.376Z,6.50
2018-01-13T03:09:20.174Z,6.50
2018-01-13T03:10:24.328Z,6.50
2018-01-13T03:11:28.466Z,6.50
2018-01-13T03:12:32.700Z,6.50
2018-01-13T03:13:36.949Z,6.40
2018-01-13T03:14:41.423Z,6.40
2018-01-13T03:15:45.618Z,6.30
2018-01-13T03:16:49.745Z,6.40
2018-01-13T03:17:54.017Z,6.40
2018-01-13T03:18:58.175Z,6.50
2018-01-13T03:20:02.215Z,6.60
2018-01-13T03:21:06.554Z,6.60
2018-01-13T03:22:10.694Z,6.60
2018-01-13T03:23:14.689Z,6.60
2018-01-13T03:24:18.723Z,6.50
2018-01-13T03:25:22.732Z,6.50
2018-01-13T03:26:26.932Z,6.50
2018-01-13T03:27:31.245Z,6.50
2018-01-13T03:28:35.813Z,6.50
2018-01-13T03:29:39.860Z,6.50
2018-01-13T03:30:43.930Z,6.50
2018-01-13T03:31:48.788Z,6.60
2018-01-13T03:32:52.898Z,6.50
2018-01-13T03:33:57.121Z,6.50
2018-01-13T03:35:01.207Z,6.60
2018-01-13T03:36:05.280Z,6.50
2018-01-13T03:37:09.348Z,6.50
2018-01-13T03:38:13.397Z,6.60
2018-01-13T03:39:17.412Z,6.60
2018-01-13T03:40:21.414Z,6.70
2018-01-13T03:41:25.445Z,6.60
2018-01-13T03:42:29.541Z,6.50
2018-01-13T03:43:34.264Z,6.60
2018-01-13T03:44:38.241Z,6.60
2018-01-13T03:45:42.723Z,6.60
2018-01-13T03:46:46.959Z,6.60
2018-01-13T03:47:50.996Z,6.50
2018-01-13T03:48:55.801Z,6.60
2018-01-13T03:49:59.829Z,6.60
2018-01-13T03:51:04.586Z,6.70
2018-01-13T03:52:08.641Z,6.70
2018-01-13T03:53:13.457Z,6.80
2018-01-13T03:54:18.184Z,6.80
2018-01-13T03:55:22.941Z,6.80
2018-01-13T03:56:27.047Z,6.80
2018-01-13T03:57:31.071Z,6.90
2018-01-13T03:58:35.070Z,6.90
2018-01-13T03:59:40.896Z,7.00
2018-01-13T04:00:44.945Z,7.00
2018-01-13T04:01:49.692Z,6.90
2018-01-13T04:02:53.984Z,6.90
2018-01-13T04:03:58.478Z,6.90
2018-01-13T04:05:02.550Z,6.90
2018-01-13T04:06:06.933Z,6.90
2018-01-13T04:07:11.154Z,6.90
2018-01-13T04:08:15.181Z,6.90
2018-01-13T04:09:19.517Z,6.90
2018-01-13T04:10:24.040Z,6.90
2018-01-13T04:11:28.135Z,6.90
2018-01-13T04:12:32.094Z,6.90
2018-01-13T04:13:36.241Z,6.90
2018-01-13T04:14:40.191Z,6.90
2018-01-13T04:15:44.691Z,6.90
2018-01-13T04:16:48.935Z,7.00
2018-01-13T04:17:54.008Z,7.00
2018-01-13T04:18:58.143Z,7.00
2018-01-13T04:20:02.349Z,7.00
2018-01-13T04:21:06.330Z,7.00
2018-01-13T04:22:10.385Z,7.00
2018-01-13T04:23:14.565Z,7.10
2018-01-13T04:24:18.604Z,7.10
2018-01-13T04:25:22.782Z,7.10
2018-01-13T04:26:26.975Z,7.10
2018-01-13T04:27:31.962Z,7.10
2018-01-13T04:28:36.108Z,7.10
2018-01-13T04:29:41.001Z,7.10
2018-01-13T04:30:45.279Z,7.10
2018-01-13T04:31:49.545Z,7.10
2018-01-13T04:32:54.540Z,7.10
2018-01-13T04:33:58.565Z,7.10
2018-01-13T04:35:03.334Z,7.10
2018-01-13T04:36:07.380Z,7.10
2018-01-13T04:37:12.148Z,7.00
2018-01-13T04:38:16.136Z,7.00
2018-01-13T04:39:20.175Z,7.00
2018-01-13T04:40:24.139Z,7.10
2018-01-13T04:41:28.139Z,7.10
2018-01-13T04:42:32.116Z,7.10
2018-01-13T04:43:36.084Z,7.20
2018-01-13T04:44:40.093Z,7.20
2018-01-13T04:45:44.864Z,7.20
2018-01-13T04:46:48.864Z,7.20
2018-01-13T04:47:52.869Z,7.20
2018-01-13T04:48:56.937Z,7.20
2018-01-13T04:50:00.882Z,7.20
2018-01-13T04:51:05.848Z,7.20
2018-01-13T04:52:10.037Z,7.20
2018-01-13T04:53:14.986Z,7.30
2018-01-13T04:54:19.225Z,7.20
2018-01-13T04:55:24.173Z,7.20
2018-01-13T04:56:28.298Z,7.20
2018-01-13T04:57:33.253Z,7.20
2018-01-13T04:58:37.462Z,7.20
2018-01-13T04:59:42.161Z,7.30
2018-01-13T05:00:46.284Z,7.30
2018-01-13T05:01:50.485Z,7.30
2018-01-13T05:02:54.625Z,7.30
2018-01-13T05:03:59.207Z,7.20
2018-01-13T05:05:03.402Z,7.20
2018-01-13T05:06:07.613Z,7.20
2018-01-13T05:07:11.815Z,7.20
2018-01-13T05:08:16.206Z,7.20
2018-01-13T05:09:20.327Z,7.20
2018-01-13T05:10:24.695Z,7.20
2018-01-13T05:11:29.900Z,7.20
2018-01-13T05:12:34.060Z,7.20
2018-01-13T05:13:38.274Z,7.20
2018-01-13T05:14:42.696Z,7.20
2018-01-13T05:15:46.904Z,7.20
2018-01-13T05:16:51.483Z,7.20
2018-01-13T05:17:55.613Z,7.20
2018-01-13T05:18:59.805Z,7.20
2018-01-13T05:20:04.017Z,7.20
2018-01-13T05:21:08.203Z,7.20
2018-01-13T05:22:12.339Z,7.20
2018-01-13T05:23:16.605Z,7.20
2018-01-13T05:24:21.100Z,7.20
2018-01-13T05:25:25.993Z,7.20
2018-01-13T05:26:30.110Z,7.20
2018-01-13T05:27:35.387Z,7.20
2018-01-13T05:28:39.585Z,7.20
2018-01-13T05:29:43.773Z,7.30
2018-01-13T05:30:47.817Z,7.20
2018-01-13T05:31:51.900Z,7.20
2018-01-13T05:32:55.983Z,7.20
2018-01-13T05:34:00.423Z,7.20
2018-01-13T05:35:04.709Z,7.20
2018-01-13T05:36:08.894Z,7.20
2018-01-13T05:37:13.102Z,7.10
2018-01-13T05:38:18.075Z,7.20
2018-01-13T05:39:22.256Z,7.20
2018-01-13T05:40:26.733Z,7.20
2018-01-13T05:41:31.681Z,7.20
2018-01-13T05:42:36.086Z,7.20
2018-01-13T05:43:40.360Z,7.20
2018-01-13T05:44:45.391Z,7.10
2018-01-13T05:45:50.317Z,7.10
2018-01-13T05:46:55.292Z,7.20
2018-01-13T05:47:59.590Z,7.10
2018-01-13T05:49:03.781Z,7.20
2018-01-13T05:50:07.840Z,7.10
2018-01-13T05:51:12.628Z,7.10
2018-01-13T05:52:16.605Z,7.10
2018-01-13T05:53:20.705Z,7.10
2018-01-13T05:54:24.732Z,7.20
2018-01-13T05:55:28.721Z,7.20
2018-01-13T05:56:32.685Z,7.20
2018-01-13T05:57:36.642Z,7.20
2018-01-13T05:58:40.649Z,7.30
2018-01-13T05:59:44.713Z,7.30
2018-01-13T06:00:48.710Z,7.30
2018-01-13T06:01:52.822Z,7.30
2018-01-13T06:02:56.813Z,7.30
2018-01-13T06:04:00.857Z,7.30
2018-01-13T06:05:05.610Z,7.40
2018-01-13T06:06:09.621Z,7.30
2018-01-13T06:07:13.573Z,7.40
2018-01-13T06:08:18.352Z,7.30
2018-01-13T06:09:22.616Z,7.30
2018-01-13T06:10:27.860Z,7.40
2018-01-13T06:11:32.197Z,7.30
2018-01-13T06:12:36.304Z,7.40
2018-01-13T06:13:41.186Z,7.40
2018-01-13T06:14:45.321Z,7.40
2018-01-13T06:15:49.392Z,7.40
2018-01-13T06:16:53.730Z,7.40
2018-01-13T06:17:57.678Z,7.40
2018-01-13T06:19:02.482Z,7.40
2018-01-13T06:20:06.529Z,7.40
2018-01-13T06:21:10.882Z,7.40
2018-01-13T06:22:14.917Z,7.40
2018-01-13T06:23:18.909Z,7.40
2018-01-13T06:24:22.932Z,7.40
2018-01-13T06:25:26.907Z,7.40
2018-01-13T06:26:30.927Z,7.40
2018-01-13T06:27:34.958Z,7.40
2018-01-13T06:28:38.937Z,7.40
2018-01-13T06:29:42.926Z,7.40
2018-01-13T06:30:47.001Z,7.40
2018-01-13T06:31:52.099Z,7.40
2018-01-13T06:32:56.748Z,7.40
2018-01-13T06:34:02.221Z,7.40
2018-01-13T06:35:06.338Z,7.40
2018-01-13T06:36:10.581Z,7.40
2018-01-13T06:37:15.444Z,7.40
2018-01-13T06:38:19.585Z,7.40
2018-01-13T06:39:23.719Z,7.40
2018-01-13T06:40:28.687Z,7.40
2018-01-13T06:41:33.009Z,7.30
2018-01-13T06:42:37.041Z,7.30
2018-01-13T06:43:41.933Z,7.40
2018-01-13T06:44:46.090Z,7.30
2018-01-13T06:45:50.189Z,7.40
2018-01-13T06:46:54.423Z,7.40
2018-01-13T06:47:58.630Z,7.40
2018-01-13T06:49:02.831Z,7.40
2018-01-13T06:50:07.339Z,7.40
2018-01-13T06:51:11.463Z,7.40
2018-01-13T06:52:15.549Z,7.40
2018-01-13T06:53:19.530Z,7.40
2018-01-13T06:54:23.507Z,7.40
2018-01-13T06:55:28.230Z,7.40
2018-01-13T06:56:32.341Z,7.40
2018-01-13T06:57:36.562Z,7.40
2018-01-13T06:58:40.547Z,7.40
2018-01-13T06:59:44.582Z,7.40
2018-01-13T07:00:48.861Z,7.40
2018-01-13T07:01:53.052Z,7.40
2018-01-13T07:02:57.337Z,7.40
2018-01-13T07:04:02.228Z,7.40
2018-01-13T07:05:06.282Z,7.40
2018-01-13T07:06:10.280Z,7.40
2018-01-13T07:07:14.298Z,7.40
2018-01-13T07:08:18.589Z,7.30
2018-01-13T07:09:22.635Z,7.30
2018-01-13T07:10:26.633Z,7.30
2018-01-13T07:11:30.936Z,7.30
2018-01-13T07:12:34.982Z,7.30
2018-01-13T07:13:40.058Z,7.30
2018-01-13T07:14:44.308Z,7.30
2018-01-13T07:15:49.213Z,7.30
2018-01-13T07:16:53.434Z,7.40
2018-01-13T07:17:58.323Z,7.40
2018-01-13T07:19:02.528Z,7.30
2018-01-13T07:20:06.775Z,7.30
2018-01-13T07:21:10.921Z,7.40
2018-01-13T07:22:14.880Z,7.40
2018-01-13T07:23:19.618Z,7.30
2018-01-13T07:24:23.722Z,7.40
2018-01-13T07:25:27.886Z,7.30
2018-01-13T07:26:32.698Z,7.30
2018-01-13T07:27:36.705Z,7.30
2018-01-13T07:28:41.423Z,7.40
2018-01-13T07:29:46.247Z,7.40
2018-01-13T07:30:51.366Z,7.40
2018-01-13T07:31:56.135Z,7.40
2018-01-13T07:33:00.122Z,7.40
2018-01-13T07:34:04.218Z,7.40
2018-01-13T07:35:08.939Z,7.40
2018-01-13T07:36:13.017Z,7.40
2018-01-13T07:37:17.244Z,7.40
2018-01-13T07:38:21.191Z,7.40
2018-01-13T07:39:25.962Z,7.40
2018-01-13T07:40:29.938Z,7.40
2018-01-13T07:41:34.803Z,7.30
2018-01-13T07:42:38.862Z,7.30
2018-01-13T07:43:43.211Z,7.40
2018-01-13T07:44:47.157Z,7.40
2018-01-13T07:45:51.969Z,7.40
2018-01-13T07:46:56.792Z,7.40
2018-01-13T07:48:01.561Z,7.40
2018-01-13T07:49:05.744Z,7.40
2018-01-13T07:50:10.042Z,7.40
2018-01-13T07:51:14.059Z,7.40
2018-01-13T07:52:18.061Z,7.40
2018-01-13T07:53:22.098Z,7.40
2018-01-13T07:54:26.053Z,7.40
2018-01-13T07:55:30.369Z,7.40
2018-01-13T07:56:34.308Z,7.40
2018-01-13T07:57:38.341Z,7.40
2018-01-13T07:58:43.164Z,7.40
2018-01-13T07:59:47.176Z,7.40
2018-01-13T08:00:51.133Z,7.40
2018-01-13T08:01:55.411Z,7.40
2018-01-13T08:02:59.458Z,7.40
2018-01-13T08:04:04.662Z,7.50
2018-01-13T08:05:08.701Z,7.40
2018-01-13T08:06:12.867Z,7.50
2018-01-13T08:07:17.008Z,7.50
2018-01-13T08:08:21.376Z,7.50
2018-01-13T08:09:25.401Z,7.50
2018-01-13T08:10:30.198Z,7.50
2018-01-13T08:11:34.266Z,7.50
2018-01-13T08:12:38.270Z,7.50
2018-01-13T08:13:42.549Z,7.40
2018-01-13T08:14:46.610Z,7.40
2018-01-13T08:15:50.597Z,7.40
2018-01-13T08:16:54.656Z,7.40
2018-01-13T08:17:58.694Z,7.40
2018-01-13T08:19:03.170Z,7.40
2018-01-13T08:20:07.499Z,7.40
2018-01-13T08:21:11.468Z,7.40
2018-01-13T08:22:15.520Z,7.40
2018-01-13T08:23:19.593Z,7.40
2018-01-13T08:24:23.615Z,7.40
2018-01-13T08:25:27.722Z,7.40
2018-01-13T08:26:32.134Z,7.30
2018-01-13T08:27:36.555Z,7.30
2018-01-13T08:28:40.691Z,7.20
2018-01-13T08:29:44.906Z,7.20
2018-01-13T08:30:49.100Z,7.20
2018-01-13T08:31:53.259Z,7.30
2018-01-13T08:32:57.749Z,7.40
2018-01-13T08:34:01.924Z,7.30
2018-01-13T08:35:06.151Z,7.30
2018-01-13T08:36:10.385Z,7.40
2018-01-13T08:37:14.590Z,7.30
2018-01-13T08:38:18.761Z,7.30
2018-01-13T08:39:23.250Z,7.40
2018-01-13T08:40:27.478Z,7.30
2018-01-13T08:41:31.666Z,7.30
2018-01-13T08:42:35.869Z,7.30
2018-01-13T08:43:40.062Z,7.20
2018-01-13T08:44:44.282Z,7.10
2018-01-13T08:45:48.361Z,7.20
2018-01-13T08:46:53.102Z,7.20
2018-01-13T08:47:57.129Z,7.20
2018-01-13T08:49:01.162Z,7.20
2018-01-13T08:50:05.223Z,7.20
2018-01-13T08:51:09.189Z,7.20
2018-01-13T08:52:13.257Z,7.20
2018-01-13T08:53:17.335Z,7.20
2018-01-13T08:54:21.396Z,7.20
2018-01-13T08:55:25.656Z,7.20
2018-01-13T08:56:29.790Z,7.20
2018-01-13T08:57:34.780Z,7.10
2018-01-13T08:58:40.060Z,7.20
2018-01-13T08:59:44.125Z,7.10
2018-01-13T09:00:48.248Z,7.10
2018-01-13T09:01:53.132Z,7.20
2018-01-13T09:02:57.308Z,7.20
2018-01-13T09:04:01.614Z,7.20
2018-01-13T09:05:05.782Z,7.10
2018-01-13T09:06:10.803Z,7.00
2018-01-13T09:07:15.836Z,7.00
2018-01-13T09:08:20.923Z,6.90
2018-01-13T09:09:25.157Z,6.90
2018-01-13T09:10:30.148Z,6.90
2018-01-13T09:11:36.344Z,6.90
2018-01-13T09:12:40.569Z,6.90
2018-01-13T09:13:44.806Z,7.00
2018-01-13T09:14:49.124Z,7.00
2018-01-13T09:15:53.707Z,7.00
2018-01-13T09:16:57.992Z,6.90
2018-01-13T09:18:02.136Z,6.90
2018-01-13T09:19:06.632Z,7.00
2018-01-13T09:20:11.201Z,7.20
2018-01-13T09:21:16.110Z,7.60
2018-01-13T09:22:21.108Z,7.70
2018-01-13T09:23:25.997Z,7.70
2018-01-13T09:24:30.187Z,7.70
2018-01-13T09:25:34.220Z,7.60
2018-01-13T09:26:39.146Z,7.50
2018-01-13T09:27:43.113Z,7.40
2018-01-13T09:28:47.145Z,7.40
2018-01-13T09:29:51.176Z,7.40
2018-01-13T09:30:55.176Z,7.40
2018-01-13T09:31:59.234Z,7.30
2018-01-13T09:33:03.622Z,7.30
2018-01-13T09:34:07.955Z,7.30
2018-01-13T09:35:12.267Z,7.20
2018-01-13T09:36:16.490Z,7.20
2018-01-13T09:37:20.609Z,7.20
2018-01-13T09:38:27.820Z,7.20
2018-01-13T09:39:40.238Z,7.20
2018-01-13T09:40:44.604Z,7.20
2018-01-13T09:41:49.140Z,7.20
2018-01-13T09:42:54.379Z,7.20
2018-01-13T09:43:59.712Z,7.10
2018-01-13T09:45:04.275Z,7.10
2018-01-13T09:46:09.399Z,7.00
2018-01-13T09:47:13.995Z,7.00
2018-01-13T09:48:18.234Z,7.00
2018-01-13T09:49:23.228Z,6.90
2018-01-13T09:50:27.498Z,6.90
2018-01-13T09:51:31.680Z,6.90
2018-01-13T09:52:36.894Z,6.90
2018-01-13T09:53:41.721Z,6.90
2018-01-13T09:54:45.832Z,6.90
2018-01-13T09:55:49.855Z,7.00
2018-01-13T09:56:53.821Z,7.10
2018-01-13T09:57:58.774Z,7.10
2018-01-13T09:59:02.987Z,7.00
2018-01-13T10:00:07.124Z,7.10
2018-01-13T10:01:11.362Z,7.10
2018-01-13T10:02:15.526Z,7.10
2018-01-13T10:03:19.793Z,7.10
2018-01-13T10:04:24.065Z,7.00
2018-01-13T10:05:28.553Z,7.00
2018-01-13T10:06:32.719Z,6.90
2018-01-13T10:07:36.881Z,6.90
2018-01-13T10:08:41.090Z,7.00
2018-01-13T10:09:45.977Z,7.00
2018-01-13T10:10:50.211Z,7.00
2018-01-13T10:11:54.923Z,7.10
2018-01-13T10:12:59.211Z,7.10
2018-01-13T10:14:03.297Z,7.20
2018-01-13T10:15:07.373Z,7.30
2018-01-13T10:16:11.478Z,7.40
2018-01-13T10:17:15.621Z,7.50
2018-01-13T10:18:20.012Z,7.50
2018-01-13T10:19:24.132Z,7.60
2018-01-13T10:20:29.121Z,7.60
2018-01-13T10:21:33.148Z,7.60
2018-01-13T10:22:37.193Z,7.60
2018-01-13T10:23:42.311Z,7.60
2018-01-13T10:24:47.249Z,7.60
2018-01-13T10:25:52.075Z,7.70
2018-01-13T10:26:56.270Z,7.70
2018-01-13T10:28:01.148Z,7.80
2018-01-13T10:29:05.146Z,7.80
2018-01-13T10:30:09.488Z,7.80
2018-01-13T10:31:14.273Z,7.80
2018-01-13T10:32:18.641Z,7.70
2018-01-13T10:33:23.613Z,7.80
2018-01-13T10:34:27.885Z,7.80
2018-01-13T10:35:32.151Z,7.90
2018-01-13T10:36:37.967Z,7.90
2018-01-13T10:37:43.017Z,7.90
2018-01-13T10:38:48.016Z,7.90
2018-01-13T10:39:52.252Z,7.90
2018-01-13T10:40:57.160Z,7.90
2018-01-13T10:42:02.837Z,8.00
2018-01-13T10:43:07.057Z,8.00
2018-01-13T10:44:11.277Z,8.00
2018-01-13T10:45:15.469Z,8.00
2018-01-13T10:46:19.824Z,8.00
2018-01-13T10:47:24.635Z,8.10
2018-01-13T10:48:28.757Z,8.10
2018-01-13T10:49:33.597Z,8.20
2018-01-13T10:50:37.624Z,8.20
2018-01-13T10:51:41.644Z,8.10
2018-01-13T10:52:45.641Z,8.20
2018-01-13T10:53:49.642Z,8.20
2018-01-13T10:54:54.090Z,8.30
2018-01-13T10:55:58.919Z,8.40
2018-01-13T10:57:03.078Z,8.40
2018-01-13T10:58:07.420Z,8.40
2018-01-13T10:59:12.394Z,8.40
2018-01-13T11:00:16.796Z,8.40
2018-01-13T11:01:20.918Z,8.40
2018-01-13T11:02:25.222Z,8.30
2018-01-13T11:03:29.322Z,8.40
2018-01-13T11:04:33.353Z,8.30
2018-01-13T11:05:38.144Z,8.30
2018-01-13T11:06:42.541Z,8.30
2018-01-13T11:07:47.570Z,8.40
2018-01-13T11:08:51.566Z,8.40
2018-01-13T11:09:55.634Z,8.50
2018-01-13T11:10:59.709Z,8.60
2018-01-13T11:12:04.432Z,8.70
2018-01-13T11:13:09.576Z,8.70
2018-01-13T11:14:13.661Z,8.70
2018-01-13T11:15:17.765Z,8.70
2018-01-13T11:16:22.688Z,8.60
2018-01-13T11:17:27.596Z,8.60
2018-01-13T11:18:32.810Z,8.70
2018-01-13T11:19:36.864Z,8.70
2018-01-13T11:20:40.936Z,8.80
2018-01-13T11:21:45.774Z,9.10
2018-01-13T11:22:49.805Z,9.10
2018-01-13T11:23:54.162Z,9.20
2018-01-13T11:24:59.255Z,9.50
2018-01-13T11:26:03.261Z,9.50
2018-01-13T11:27:07.357Z,9.70
2018-01-13T11:28:11.466Z,9.90
2018-01-13T11:29:15.712Z,10.10
2018-01-13T11:30:20.293Z,10.20
2018-01-13T11:31:24.367Z,10.30
2018-01-13T11:32:28.366Z,10.40
2018-01-13T11:33:32.413Z,10.30
2018-01-13T11:34:37.404Z,10.40
2018-01-13T11:35:41.426Z,10.40
2018-01-13T11:36:46.558Z,10.40
2018-01-13T11:37:51.279Z,10.30
2018-01-13T11:38:56.153Z,10.30
2018-01-13T11:40:00.334Z,10.30
2018-01-13T11:41:05.076Z,10.40
2018-01-13T11:42:09.885Z,10.60
2018-01-13T11:43:14.974Z,10.70
2018-01-13T11:44:22.856Z,10.50
2018-01-13T11:45:27.774Z,10.40
2018-01-13T11:46:32.545Z,10.20
2018-01-13T11:47:36.579Z,10.20
2018-01-13T11:48:40.965Z,10.20
2018-01-13T11:49:45.068Z,10.20
2018-01-13T11:50:50.068Z,10.20
2018-01-13T11:51:54.959Z,10.20
2018-01-13T11:52:59.883Z,10.60
2018-01-13T11:54:06.009Z,10.60
2018-01-13T11:55:13.836Z,10.70
2018-01-13T11:56:18.107Z,10.70
2018-01-13T11:57:22.383Z,11.00
2018-01-13T11:58:26.674Z,11.30
2018-01-13T11:59:30.942Z,11.30
2018-01-13T12:00:35.821Z,11.60
2018-01-13T12:01:40.261Z,11.60
2018-01-13T12:02:44.296Z,11.60
2018-01-13T12:03:48.329Z,11.50
2018-01-13T12:04:52.406Z,11.50
2018-01-13T12:05:56.482Z,11.60
2018-01-13T12:07:01.275Z,11.40
2018-01-13T12:08:05.736Z,11.40
2018-01-13T12:09:09.887Z,11.20
2018-01-13T12:10:13.939Z,11.10
2018-01-13T12:11:18.185Z,11.10
2018-01-13T12:12:22.158Z,11.00
2018-01-13T12:13:26.241Z,11.10
2018-01-13T12:14:30.461Z,11.00
2018-01-13T12:15:34.535Z,11.00
2018-01-13T12:16:39.366Z,10.80
2018-01-13T12:17:43.521Z,10.80
2018-01-13T12:18:47.730Z,10.70
2018-01-13T12:19:51.872Z,10.50
2018-01-13T12:20:56.266Z,10.50
2018-01-13T12:22:01.268Z,10.50
2018-01-13T12:23:05.480Z,10.40
2018-01-13T12:24:09.688Z,10.50
2018-01-13T12:25:14.680Z,10.40
2018-01-13T12:26:18.875Z,10.40
2018-01-13T12:27:22.866Z,10.50
2018-01-13T12:28:26.980Z,10.30
2018-01-13T12:29:31.189Z,10.20
2018-01-13T12:30:35.177Z,10.00
2018-01-13T12:31:40.236Z,9.90
2018-01-13T12:32:44.717Z,9.90
2018-01-13T12:33:49.409Z,9.80
2018-01-13T12:34:53.500Z,9.80
2018-01-13T12:35:57.495Z,9.80
2018-01-13T12:37:02.322Z,9.90
2018-01-13T12:38:06.619Z,9.90
2018-01-13T12:39:11.612Z,9.70
2018-01-13T12:40:15.763Z,9.70
2018-01-13T12:41:19.978Z,9.70
2018-01-13T12:42:24.114Z,9.80
2018-01-13T12:43:28.340Z,9.70
2018-01-13T12:44:32.637Z,9.60
2018-01-13T12:45:36.794Z,9.60
2018-01-13T12:46:40.939Z,9.60
2018-01-13T12:47:44.915Z,9.60
2018-01-13T12:48:49.153Z,9.60
2018-01-13T12:49:53.243Z,9.50
2018-01-13T12:50:59.102Z,9.40
2018-01-13T12:52:05.790Z,9.50
2018-01-13T12:53:12.329Z,9.40
2018-01-13T12:54:16.951Z,9.40
2018-01-13T12:55:21.719Z,9.50
2018-01-13T12:56:25.790Z,9.50
2018-01-13T12:57:29.763Z,9.50
2018-01-13T12:58:34.272Z,9.50
2018-01-13T12:59:38.263Z,9.50
2018-01-13T13:00:42.993Z,9.50
2018-01-13T13:01:49.011Z,9.60
2018-01-13T13:02:53.154Z,9.60
2018-01-13T13:03:58.205Z,9.70
2018-01-13T13:05:05.243Z,9.60
2018-01-13T13:06:10.254Z,9.60
2018-01-13T13:07:24.585Z,9.50
2018-01-13T13:08:32.483Z,9.40
2018-01-13T13:11:03.766Z,9.30
2018-01-13T13:12:39.667Z,9.40
2018-01-13T13:13:43.966Z,9.30
2018-01-13T13:14:48.254Z,9.30
2018-01-13T13:15:52.783Z,9.30
2018-01-13T13:16:56.810Z,9.30
2018-01-13T13:18:01.356Z,9.20
2018-01-13T13:19:06.288Z,9.20
2018-01-13T13:20:10.580Z,9.30
2018-01-13T13:21:14.665Z,9.30
2018-01-13T13:22:20.169Z,9.20
2018-01-13T13:23:24.269Z,9.20
2018-01-13T13:24:37.428Z,9.30
2018-01-13T13:25:41.620Z,9.40
2018-01-13T13:26:46.458Z,9.40
2018-01-13T13:27:50.792Z,9.40
2018-01-13T13:28:54.982Z,9.50
2018-01-13T13:29:59.665Z,9.50
2018-01-13T13:31:04.463Z,9.50
2018-01-13T13:32:10.033Z,9.50
2018-01-13T13:33:14.842Z,9.40
2018-01-13T13:34:19.770Z,9.30
2018-01-13T13:35:24.663Z,9.30
2018-01-13T13:36:29.228Z,9.30
2018-01-13T13:37:33.337Z,9.30
2018-01-13T13:38:40.655Z,9.40
2018-01-13T13:39:44.756Z,9.40
2018-01-13T13:40:49.036Z,9.30
2018-01-13T13:41:53.086Z,9.30
2018-01-13T13:42:57.951Z,9.10
2018-01-13T13:44:02.527Z,9.10
2018-01-13T13:45:07.322Z,8.90
2018-01-13T13:46:11.452Z,8.90
2018-01-13T13:47:15.746Z,8.80
2018-01-13T13:48:20.824Z,8.60
2018-01-13T13:49:25.188Z,8.60
2018-01-13T13:50:29.407Z,8.50
2018-01-13T13:51:34.503Z,8.40
2018-01-13T13:52:38.741Z,8.40
2018-01-13T13:53:44.708Z,8.30
2018-01-13T13:54:48.889Z,8.30
2018-01-13T13:55:53.275Z,8.30
2018-01-13T13:56:58.272Z,8.30
2018-01-13T13:58:02.630Z,8.30
2018-01-13T13:59:06.931Z,8.30
2018-01-13T14:00:11.486Z,8.30
2018-01-13T14:01:28.507Z,8.30
2018-01-13T14:02:21.032Z,8.30
2018-01-13T14:03:25.285Z,8.30
2018-01-13T14:04:29.554Z,8.40
2018-01-13T14:05:33.963Z,8.50
2018-01-13T14:06:38.303Z,8.60
2018-01-13T14:07:43.158Z,8.70
2018-01-13T14:08:47.357Z,8.70
2018-01-13T14:09:51.627Z,8.70
2018-01-13T14:10:56.766Z,8.60
2018-01-13T14:12:00.818Z,8.60
2018-01-13T14:13:04.857Z,8.80
2018-01-13T14:14:10.039Z,9.40
2018-01-13T14:15:14.309Z,9.40
2018-01-13T14:16:18.522Z,9.50
2018-01-13T14:17:22.807Z,9.50